メインページ
METAR-TAF:

METAR-TAF

空港 :

レゾリュート, ヌナブト準州, カナダ

緯度: 74-43N, 経度: 094-59W, 海抜: 67m

現時点の気象観測

当レポートは1時間8分前の21:00(UTC)に作成
の風 10kt
気温 -36°C
湿度 60%
気圧 1015 hPa
視程: 24.1km
高度14000ftの雲はほとんどない
高度25000ftの千切れ雲あり
氷晶

METAR: CYRB 192100Z 35010KT 15SM IC FEW140 BKN250 M36/M41 A2996 RMK AC1CS6 AC TR SLP162

時間: 16:08 (22:08 UTC)

予報

当レポートは4時間30分前の17:38(UTC)に作成
予報は19日の 18時(UTC)から 20日の 18時(UTC)まで有効
北西の風 12kt
視程: 10km
高度3000ftの雲はほとんどない
高度15000ftの雲は散在している
氷晶
19日の 20時(UTC)から 19日の 22時(UTC)まで徐々に
西の風 10kt

TAF: CYRB 191738Z 1918/2018 31012KT P6SM IC FEW030 SCT150 BECMG 1920/1922 28010KT RMK NXT FCST BY 200000Z

4,000以上の空港の気象観測と天気予報(METAR報とTAF報)

利用可能な観測所は地図上に黄色い丸と赤い丸で示す。

丸の上にカーソルを重ねると観測所名を参照できる。

次にクリックすると気象観測と天気予報を参照できる。

マップの切り替え:黒色「×」印の緑ボタンをクリックして拡大、「-」印の緑ボタンをクリックして縮小、緑色の三角印をクリックして隣りの地図に切り替え


METAR-TAF: